Terminal Aerodrome Forecast
Issued by NWS

Home | Current Version | Previous Version | Text Only | Print | Product List | Glossary On
Versions: 1 2 3 4 5 6 7 8 9 10 11 12 13 14 15 16 17 18 19 20 21 22 23 24
414
FTUS46 KMTR 201124
TAFSFO
TAF
KSFO 201124Z 2012/2118 17034G45KT 3SM +RA OVC015
     FM201500 25025G34KT 5SM RA OVC015
     FM202000 26030G34KT 6SM SHRA BKN020 OVC050
     FM210300 26022G30KT P6SM -SHRA BKN015 OVC040
     FM210600 27017KT P6SM -SHRA BKN015 OVC040
     FM211000 27014KT P6SM -SHRA OVC015=

USA.gov is the U.S. government's official web portal to all federal, state and local government web resources and services.